^^
Grace C. Lehan Memorial Weather Station Historical Data
Daily Summary for January 25, 2022 Units:  English    Metric   Both
Daily Weekly Monthly Yearly
  High: Low: Average:
Temperature: 43.7 °F 28.8 °F 34.3 °F
Dew Point: 32.9 °F 17.7 °F 28.2 °F
Humidity: 94.9% 54% 80%
Wind Speed: 9.2mph 0mph 1.1mph
Wind Gust: 18mph - -
Wind- - WNW
Pressure: 30.05 in 29.80 in -
Precipitation: 0.03 in    
 
 
Tabular Data for January 25, 2022
Time Temperature Dew Point Pressure Wind Wind Speed Wind Gust Humidity Rainfall Rate (Hourly) solar
00:04 28.8 °F 26.2 °F 29.85 in Calm     90% 0.00 in 0 W/m2
00:09 28.8 °F 26.2 °F 29.85 in Calm     90% 0.00 in 0 W/m2
00:14 28.8 °F 26.2 °F 29.85 in Calm     90% 0.00 in 0 W/m2
00:19 28.8 °F 26.2 °F 29.85 in Calm     90% 0.00 in 0 W/m2
00:24 28.8 °F 26.2 °F 29.85 in Calm     90% 0.00 in 0 W/m2
00:29 28.8 °F 26.4 °F 29.84 in Calm     90.8% 0.00 in 0 W/m2
00:34 28.9 °F 26.6 °F 29.84 in Calm     91% 0.00 in 0 W/m2
00:39 28.9 °F 26.6 °F 29.84 in Calm     91% 0.00 in 0 W/m2
00:44 28.9 °F 26.6 °F 29.84 in Calm     91% 0.00 in 0 W/m2
00:49 29 °F 26.7 °F 29.84 in Calm     91% 0.00 in 0 W/m2
00:54 29 °F 26.7 °F 29.84 in Calm     91% 0.00 in 0 W/m2
00:59 29 °F 26.7 °F 29.83 in Calm     91% 0.00 in 0 W/m2
01:04 29 °F 26.7 °F 29.83 in Calm     91% 0.00 in 0 W/m2
01:09 29.1 °F 26.8 °F 29.83 in Calm     91% 0.00 in 0 W/m2
01:14 29.1 °F 26.9 °F 29.83 in Calm     91% 0.00 in 0 W/m2
01:19 29.2 °F 26.9 °F 29.83 in Calm     91% 0.00 in 0 W/m2
01:24 29.2 °F 26.9 °F 29.83 in Calm     91% 0.00 in 0 W/m2
01:29 29.3 °F 27 °F 29.83 in Calm     91% 0.00 in 0 W/m2
01:34 29.3 °F 27 °F 29.83 in Calm     91% 0.00 in 0 W/m2
01:39 29.3 °F 27.2 °F 29.83 in Calm     91.6% 0.00 in 0 W/m2
01:44 29.4 °F 27.1 °F 29.83 in Calm     91.1% 0.00 in 0 W/m2
01:49 29.4 °F 27.1 °F 29.83 in Calm     91% 0.00 in 0 W/m2
01:54 29.4 °F 27.2 °F 29.83 in Calm     91.4% 0.00 in 0 W/m2
01:59 29.5 °F 27.5 °F 29.83 in Calm     92% 0.00 in 0 W/m2
02:04 29.6 °F 27.5 °F 29.83 in Calm     92% 0.00 in 0 W/m2
02:09 29.6 °F 27.6 °F 29.82 in Calm     92% 0.00 in 0 W/m2
02:14 29.7 °F 27.7 °F 29.83 in Calm     92% 0.00 in 0 W/m2
02:19 29.7 °F 27.7 °F 29.83 in Calm     92% 0.00 in 0 W/m2
02:23 29.8 °F 27.8 °F 29.83 in Calm     92% 0.00 in 0 W/m2
02:29 29.8 °F 27.8 °F 29.83 in Calm     92% 0.00 in 0 W/m2
02:34 29.8 °F 27.8 °F 29.83 in Calm     92% 0.00 in 0 W/m2
02:39 29.9 °F 27.8 °F 29.83 in Calm     92% 0.00 in 0 W/m2
02:44 29.9 °F 27.9 °F 29.82 in Calm     92% 0.00 in 0 W/m2
02:49 29.9 °F 27.9 °F 29.82 in Calm     92% 0.00 in 0 W/m2
02:54 30 °F 28 °F 29.82 in Calm     92% 0.00 in 0 W/m2
02:59 30 °F 28 °F 29.82 in Calm     92% 0.00 in 0 W/m2
03:04 30 °F 28 °F 29.81 in Calm     92% 0.00 in 0 W/m2
03:09 30 °F 28 °F 29.81 in Calm     92% 0.00 in 0 W/m2
03:14 30 °F 28 °F 29.81 in Calm     92% 0.00 in 0 W/m2
03:19 30.1 °F 28 °F 29.81 in Calm     92% 0.00 in 0 W/m2
03:24 30.1 °F 28.1 °F 29.81 in Calm     92% 0.00 in 0 W/m2
03:29 30.1 °F 28.1 °F 29.81 in Calm     92% 0.00 in 0 W/m2
03:34 30.1 °F 28.1 °F 29.81 in Calm     92% 0.00 in 0 W/m2
03:39 30.1 °F 28.1 °F 29.81 in Calm     92% 0.00 in 0 W/m2
03:44 30.1 °F 28.1 °F 29.81 in Calm     92% 0.00 in 0 W/m2
03:49 30.1 °F 28.1 °F 29.81 in Calm     92% 0.00 in 0 W/m2
03:54 30.1 °F 28.1 °F 29.81 in Calm     92% 0.00 in 0 W/m2
03:59 30.2 °F 28.1 °F 29.81 in Calm     92% 0.00 in 0 W/m2
04:00 30.2 °F 28.2 °F 29.80 in Calm     92% 0.00 in 0 W/m2
04:09 30.2 °F 28.2 °F 29.81 in Calm     92% 0.00 in 0 W/m2
04:14 30.2 °F 28.2 °F 29.81 in Calm     92% 0.00 in 0 W/m2
04:19 30.2 °F 28.1 °F 29.81 in Calm     92% 0.00 in 0 W/m2
04:24 30.1 °F 28.1 °F 29.81 in Calm     92% 0.00 in 0 W/m2
04:29 30.1 °F 28.1 °F 29.81 in Calm     92% 0.00 in 0 W/m2
04:34 30.1 °F 28.1 °F 29.81 in Calm     92% 0.00 in 0 W/m2
04:39 30.1 °F 28.1 °F 29.81 in Calm     92% 0.00 in 0 W/m2
04:44 30.1 °F 28.2 °F 29.81 in Calm     92.5% 0.00 in 0 W/m2
04:49 30.1 °F 28.4 °F 29.81 in Calm     93% 0.00 in 0 W/m2
04:54 30.2 °F 28.4 °F 29.81 in Calm     93% 0.00 in 0 W/m2
04:59 30.2 °F 28.4 °F 29.81 in Calm     93% 0.00 in 0 W/m2
05:04 30.3 °F 28.5 °F 29.81 in Calm     93% 0.00 in 0 W/m2
05:09 30.3 °F 28.5 °F 29.81 in Calm     93% 0.00 in 0 W/m2
05:14 30.4 °F 28.6 °F 29.82 in Calm     93% 0.00 in 0 W/m2
05:19 30.4 °F 28.6 °F 29.82 in Calm     93% 0.00 in 0 W/m2
05:24 30.5 °F 28.7 °F 29.82 in Calm     93% 0.00 in 0 W/m2
05:29 30.5 °F 28.7 °F 29.82 in Calm     93% 0.00 in 0 W/m2
05:34 30.5 °F 28.7 °F 29.82 in Calm     93% 0.00 in 0 W/m2
05:39 30.5 °F 28.7 °F 29.82 in Calm     93% 0.00 in 0 W/m2
05:44 30.5 °F 28.7 °F 29.82 in Calm     93% 0.00 in 0 W/m2
05:49 30.5 °F 28.7 °F 29.82 in Calm     93% 0.00 in 0 W/m2
05:54 30.6 °F 28.8 °F 29.82 in Calm     93% 0.00 in 0 W/m2
05:59 30.6 °F 28.8 °F 29.82 in Calm     93% 0.00 in 0 W/m2
06:04 30.6 °F 28.8 °F 29.82 in Calm     93% 0.00 in 0 W/m2
06:09 30.6 °F 28.8 °F 29.82 in Calm     93% 0.00 in 0 W/m2
06:14 30.6 °F 28.8 °F 29.82 in Calm     93% 0.00 in 0 W/m2
06:19 30.6 °F 28.8 °F 29.82 in Calm     93% 0.00 in 0 W/m2
06:24 30.6 °F 28.8 °F 29.83 in Calm     93% 0.00 in 0 W/m2
06:29 30.6 °F 28.8 °F 29.83 in Calm     93% 0.00 in 0 W/m2
06:34 30.5 °F 28.7 °F 29.83 in Calm     93% 0.00 in 0 W/m2
06:39 30.5 °F 28.7 °F 29.83 in Calm     93% 0.00 in 0 W/m2
06:44 30.4 °F 28.6 °F 29.83 in Calm     93% 0.00 in 0 W/m2
06:49 30.4 °F 28.6 °F 29.83 in Calm     93% 0.00 in 0 W/m2
06:54 30.4 °F 28.6 °F 29.83 in Calm     93% 0.00 in 0 W/m2
06:59 30.4 °F 28.6 °F 29.83 in Calm     93% 0.00 in 0 W/m2
07:04 30.4 °F 28.6 °F 29.83 in Calm     93% 0.00 in 0 W/m2
07:09 30.5 °F 28.7 °F 29.83 in Calm     93% 0.00 in 0 W/m2
07:14 30.5 °F 28.7 °F 29.83 in Calm     93% 0.00 in 0 W/m2
07:19 30.4 °F 28.7 °F 29.83 in Calm     93% 0.00 in 0 W/m2
07:24 30.4 °F 28.6 °F 29.83 in Calm     93% 0.00 in 0 W/m2
07:29 30.4 °F 28.6 °F 29.84 in Calm     93% 0.00 in 5 W/m2
07:34 30.3 °F 28.5 °F 29.84 in Calm     93% 0.00 in 5 W/m2
07:39 30.3 °F 28.5 °F 29.84 in Calm     93% 0.00 in 5 W/m2
07:44 30.4 °F 28.6 °F 29.84 in Calm     93% 0.00 in 7 W/m2
07:49 30.4 °F 28.6 °F 29.85 in Calm     93% 0.00 in 7 W/m2
07:54 30.4 °F 28.7 °F 29.85 in Calm     93% 0.00 in 11 W/m2
07:59 30.5 °F 28.7 °F 29.85 in Calm     93% 0.00 in 14 W/m2
08:00 30.5 °F 28.7 °F 29.85 in Calm     93% 0.00 in 14 W/m2
08:09 30.6 °F 28.8 °F 29.85 in Calm     93% 0.00 in 16 W/m2
08:14 30.7 °F 28.9 °F 29.85 in Calm     93% 0.00 in 16 W/m2
08:19 30.8 °F 29 °F 29.86 in Calm     93% 0.00 in 19 W/m2
08:24 31 °F 29.2 °F 29.86 in Calm     93% 0.00 in 23 W/m2
08:29 31.1 °F 29.4 °F 29.86 in Calm     93.1% 0.00 in 40 W/m2
08:34 31.3 °F 29.8 °F 29.87 in Calm     94% 0.00 in 47 W/m2
08:39 31.5 °F 30 °F 29.87 in Calm     94% 0.00 in 35 W/m2
08:44 31.8 °F 30.3 °F 29.87 in Calm     94% 0.00 in 33 W/m2
08:49 32 °F 30.7 °F 29.87 in Calm     94.9% 0.00 in 44 W/m2
08:54 32.3 °F 30.8 °F 29.87 in Calm     94% 0.00 in 46 W/m2
08:59 32.5 °F 31 °F 29.87 in Calm     94% 0.00 in 46 W/m2
09:04 32.8 °F 31.3 °F 29.87 in Calm     94% 0.00 in 46 W/m2
09:09 33.1 °F 31.6 °F 29.88 in Calm     94% 0.00 in 70 W/m2
09:14 33.5 °F 32 °F 29.88 in Calm     94% 0.00 in 100 W/m2
09:19 34 °F 32.4 °F 29.88 in Calm     94% 0.00 in 77 W/m2
09:24 34.3 °F 32.7 °F 29.88 in Calm     93.8% 0.00 in 35 W/m2
09:29 34.5 °F 32.7 °F 29.89 in Calm     93% 0.00 in 51 W/m2
09:34 34.7 °F 32.8 °F 29.89 in Calm     92.6% 0.00 in 51 W/m2
09:39 34.7 °F 32.6 °F 29.89 in Calm     92% 0.00 in 51 W/m2
09:44 34.8 °F 32.5 °F 29.90 in Calm     91.1% 0.00 in 54 W/m2
09:49 34.8 °F 32.5 °F 29.90 in Calm     91% 0.00 in 54 W/m2
09:54 34.8 °F 32.3 °F 29.89 in Calm     90.3% 0.00 in 74 W/m2
09:59 34.8 °F 32.2 °F 29.89 in Calm     90% 0.00 in 104 W/m2
10:04 34.9 °F 32.3 °F 29.90 in Calm     90% 0.00 in 107 W/m2
10:09 35.1 °F 32.5 °F 29.90 in Calm     90% 0.00 in 116 W/m2
10:14 35.3 °F 32.7 °F 29.90 in Calm   1 mph 90% 0.00 in 128 W/m2
10:19 35.5 °F 32.6 °F 29.90 in South 0.4 mph 3 mph 89.1% 0.01 in 141 W/m2
10:24 35.8 °F 32.7 °F 29.90 in South 0.6 mph 5 mph 88.3% 0.01 in 141 W/m2
10:29 36 °F 32.6 °F 29.90 in WSW 0.6 mph 7 mph 87.4% 0.01 in 134 W/m2
10:34 36.2 °F 32.5 °F 29.91 in WSW 0.5 mph 7 mph 86% 0.01 in 137 W/m2
10:39 36.5 °F 32.4 °F 29.91 in WSW 0.8 mph 5 mph 85.1% 0.01 in 174 W/m2
10:44 36.7 °F 32.3 °F 29.91 in WSW 0.5 mph 5 mph 84% 0.02 in 155 W/m2
10:49 36.9 °F 32.3 °F 29.91 in WSW 1.1 mph 5 mph 83.3% 0.02 in 153 W/m2
10:54 37.1 °F 32.2 °F 29.92 in WSW 0.7 mph 5 mph 82.3% 0.02 in 141 W/m2
10:59 37.3 °F 32.3 °F 29.91 in WSW 0.1 mph 5 mph 82% 0.02 in 130 W/m2
11:04 37.4 °F 32.2 °F 29.91 in SW 0.7 mph 7 mph 81.2% 0.02 in 162 W/m2
11:09 37.5 °F 32.2 °F 29.91 in Calm   7 mph 81% 0.03 in 163 W/m2
11:14 37.7 °F 32.1 °F 29.91 in WSW 1 mph 7 mph 80.2% 0.03 in 190 W/m2
11:19 37.8 °F 32.2 °F 29.91 in WSW 0.3 mph 7 mph 80% 0.03 in 202 W/m2
11:24 38.1 °F 32.6 °F 29.90 in WSW 1.2 mph 7 mph 80.5% 0.03 in 197 W/m2
11:29 38.3 °F 32.7 °F 29.90 in West 1.4 mph 7 mph 80% 0.03 in 214 W/m2
11:34 38.5 °F 32.5 °F 29.90 in WNW 1.2 mph 7 mph 78.8% 0.03 in 197 W/m2
11:39 38.7 °F 32.4 °F 29.90 in WSW 0.7 mph 5 mph 78% 0.02 in 223 W/m2
11:44 38.9 °F 32.6 °F 29.90 in WSW 0.6 mph 5 mph 78% 0.02 in 214 W/m2
11:49 39.1 °F 32.7 °F 29.89 in WSW 0.6 mph 5 mph 77.4% 0.02 in 271 W/m2
11:54 39.4 °F 32.8 °F 29.89 in West 1.1 mph 5 mph 77% 0.02 in 195 W/m2
11:59 39.7 °F 32.6 °F 29.89 in West 3 mph 7 mph 75.6% 0.02 in 204 W/m2
12:00 39.7 °F 32.4 °F 29.89 in WNW 3 mph 7 mph 75% 0.02 in 156 W/m2
12:09 40 °F 32.4 °F 29.89 in WNW 0.7 mph 3 mph 74.1% 0.02 in 192 W/m2
12:14 40.4 °F 32.7 °F 29.89 in WNW 2 mph 7 mph 74% 0.02 in 388 W/m2
12:19 40.7 °F 32.9 °F 29.89 in WNW 1.7 mph 7 mph 73.5% 0.02 in 151 W/m2
12:24 41.1 °F 32.9 °F 29.89 in West 2.3 mph 7 mph 72.4% 0.02 in 179 W/m2
12:29 41.3 °F 32.5 °F 29.89 in WSW 1.2 mph 7 mph 70.6% 0.02 in 186 W/m2
12:34 41.5 °F 32.6 °F 29.89 in WSW 0.2 mph 7 mph 70.4% 0.02 in 128 W/m2
12:39 41.7 °F 32.7 °F 29.88 in WSW 1 mph 5 mph 70.1% 0.00 in 132 W/m2
12:44 41.9 °F 32.6 °F 29.88 in WSW 0.7 mph 5 mph 69.3% 0.00 in 225 W/m2
12:49 42 °F 32.6 °F 29.89 in WSW 0.4 mph 5 mph 69% 0.00 in 221 W/m2
12:54 42.2 °F 32.5 °F 29.89 in West 1.7 mph 5 mph 68.2% 0.00 in 192 W/m2
12:59 42.3 °F 32.5 °F 29.89 in West 1 mph 5 mph 68.2% 0.00 in 246 W/m2
13:04 42.3 °F 32.1 °F 29.88 in WNW 2.4 mph 8 mph 66.9% 0.00 in 172 W/m2
13:09 42.4 °F 31.9 °F 29.88 in WNW 2.2 mph 8 mph 66.3% 0.00 in 97 W/m2
13:14 42.5 °F 31.9 °F 29.88 in WNW 1 mph 8 mph 66% 0.00 in 193 W/m2
13:19 42.5 °F 31.4 °F 29.88 in WNW 2.6 mph 8 mph 64.4% 0.00 in 171 W/m2
13:24 42.7 °F 31.3 °F 29.88 in West 2.3 mph 8 mph 64% 0.00 in 169 W/m2
13:29 42.9 °F 31 °F 29.88 in WNW 2.6 mph 8 mph 62.6% 0.00 in 304 W/m2
13:34 43.1 °F 30.2 °F 29.88 in WNW 3 mph 9 mph 59.9% 0.00 in 181 W/m2
13:39 43.4 °F 31.1 °F 29.88 in NW 1.5 mph 9 mph 61.5% 0.00 in 127 W/m2
13:44 43.5 °F 31 °F 29.88 in WNW 1.5 mph 9 mph 61.1% 0.00 in 214 W/m2
13:49 43.6 °F 30.7 °F 29.88 in West 0.1 mph 9 mph 60.2% 0.00 in 251 W/m2
13:54 43.7 °F 30.6 °F 29.88 in WNW 4.9 mph 11 mph 59.8% 0.00 in 239 W/m2
13:59 43.7 °F 29.7 °F 29.88 in WNW 4.5 mph 11 mph 57.6% 0.00 in 213 W/m2
14:04 43.6 °F 29.2 °F 29.88 in WNW 7.2 mph 13 mph 56.7% 0.00 in 274 W/m2
14:09 43.3 °F 28.3 °F 29.89 in WNW 7.8 mph 18 mph 55.3% 0.00 in 163 W/m2
14:14 43 °F 27.8 °F 29.89 in WNW 7.6 mph 18 mph 54.6% 0.00 in 285 W/m2
14:19 42.8 °F 27.9 °F 29.89 in WNW 7 mph 18 mph 55.2% 0.00 in 251 W/m2
14:24 42.6 °F 27.5 °F 29.90 in WNW 9.2 mph 18 mph 54.8% 0.00 in 165 W/m2
14:29 42.4 °F 26.9 °F 29.90 in West 2.7 mph 18 mph 54% 0.00 in 165 W/m2
14:34 42.3 °F 27.4 °F 29.90 in WNW 5.5 mph 18 mph 55.2% 0.00 in 151 W/m2
14:39 42.2 °F 27 °F 29.90 in WNW 3.6 mph 13 mph 54.5% 0.00 in 72 W/m2
14:44 42.2 °F 27.2 °F 29.90 in West 3.1 mph 13 mph 55% 0.00 in 97 W/m2
14:49 42.1 °F 27.1 °F 29.91 in WNW 1.3 mph 13 mph 55% 0.00 in 97 W/m2
14:54 42.1 °F 27.1 °F 29.91 in WNW 4.6 mph 13 mph 55% 0.00 in 193 W/m2
14:59 41.9 °F 27 °F 29.91 in WNW 5.1 mph 13 mph 55% 0.00 in 144 W/m2
15:04 41.8 °F 26.6 °F 29.91 in WNW 6.5 mph 15 mph 54.5% 0.00 in 56 W/m2
15:09 41.6 °F 26.6 °F 29.91 in West 4.6 mph 15 mph 54.8% 0.00 in 46 W/m2
15:14 41.4 °F 26.8 °F 29.92 in WNW 2.5 mph 15 mph 55.6% 0.00 in 49 W/m2
15:19 41.2 °F 27.1 °F 29.92 in WNW 4.4 mph 15 mph 56.8% 0.00 in 72 W/m2
15:24 41 °F 27.3 °F 29.92 in NW 6 mph 15 mph 57.9% 0.00 in 70 W/m2
15:29 40.7 °F 27.2 °F 29.93 in WNW 5 mph 15 mph 58.2% 0.00 in 72 W/m2
15:34 40.5 °F 27.5 °F 29.93 in WNW 6.4 mph 15 mph 59.5% 0.00 in 70 W/m2
15:39 40.3 °F 27.4 °F 29.93 in WNW 1.3 mph 15 mph 59.7% 0.00 in 42 W/m2
15:44 40.1 °F 27.5 °F 29.93 in WNW 2.3 mph 15 mph 60.5% 0.00 in 39 W/m2
15:49 39.8 °F 27.1 °F 29.93 in WNW 6.3 mph 17 mph 60.1% 0.00 in 47 W/m2
15:54 39.5 °F 27 °F 29.94 in WNW 2.5 mph 17 mph 60.5% 0.00 in 49 W/m2
15:59 39.3 °F 27.1 °F 29.94 in NW 2.8 mph 17 mph 61.3% 0.00 in 42 W/m2
16:00 39.2 °F 26.9 °F 29.94 in WNW 4 mph 17 mph 61% 0.00 in 26 W/m2
16:09 38.8 °F 25.7 °F 29.94 in WNW 5.2 mph 17 mph 59% 0.00 in 23 W/m2
16:14 38.5 °F 25.2 °F 29.94 in WNW 5.5 mph 17 mph 58.5% 0.00 in 21 W/m2
16:19 38.2 °F 25.1 °F 29.95 in WNW 3.8 mph 17 mph 59% 0.00 in 18 W/m2
16:24 37.9 °F 25.1 °F 29.95 in WNW 1.6 mph 17 mph 59.5% 0.00 in 14 W/m2
16:29 37.7 °F 25.1 °F 29.95 in WNW 0.1 mph 17 mph 60% 0.00 in 14 W/m2
16:34 37.5 °F 25 °F 29.95 in WNW 2.4 mph 17 mph 60.4% 0.00 in 14 W/m2
16:39 37.3 °F 25.1 °F 29.95 in WNW 3.5 mph 11 mph 61% 0.00 in 16 W/m2
16:44 37.1 °F 25 °F 29.96 in WNW 2.2 mph 11 mph 61.2% 0.00 in 16 W/m2
16:49 37.1 °F 25.3 °F 29.96 in WNW 2.3 mph 11 mph 62% 0.00 in 9 W/m2
16:54 36.9 °F 25.5 °F 29.96 in WNW 2.5 mph 11 mph 62.8% 0.00 in 7 W/m2
16:59 36.7 °F 25.7 °F 29.97 in NW 3.7 mph 11 mph 63.8% 0.00 in 0 W/m2
17:04 36.5 °F 25.2 °F 29.97 in NW 4.3 mph 15 mph 63.3% 0.00 in 0 W/m2
17:09 36.3 °F 25 °F 29.98 in WNW 2 mph 15 mph 63.2% 0.00 in 0 W/m2
17:14 36.1 °F 24.9 °F 29.98 in NW 2.8 mph 15 mph 63.3% 0.00 in 0 W/m2
17:19 35.9 °F 24.7 °F 29.98 in NW 2.3 mph 15 mph 63.4% 0.00 in 0 W/m2
17:24 35.8 °F 24.8 °F 29.99 in NNW 1.2 mph 15 mph 64% 0.00 in 0 W/m2
17:29 35.5 °F 24.2 °F 29.99 in NW 2.3 mph 15 mph 63% 0.00 in 0 W/m2
17:34 35.2 °F 23.9 °F 30.00 in WNW 2.1 mph 15 mph 63% 0.00 in 0 W/m2
17:39 35 °F 23.6 °F 30.00 in NW 2.4 mph 11 mph 62.8% 0.00 in 0 W/m2
17:44 34.7 °F 23 °F 30.00 in WNW 1.1 mph 11 mph 62% 0.00 in 0 W/m2
17:49 34.4 °F 22.7 °F 30.01 in WNW 1.5 mph 11 mph 61.8% 0.00 in 0 W/m2
17:54 34.2 °F 22.1 °F 30.01 in WNW 2.7 mph 11 mph 61% 0.00 in 0 W/m2
17:59 34 °F 21.8 °F 30.01 in NW 1.7 mph 11 mph 60.7% 0.00 in 0 W/m2
18:04 33.8 °F 21.3 °F 30.01 in WNW 2.5 mph 12 mph 59.7% 0.00 in 0 W/m2
18:09 33.7 °F 21.2 °F 30.01 in WNW 1.4 mph 12 mph 59.8% 0.00 in 0 W/m2
18:14 33.5 °F 20.8 °F 30.02 in WNW 0.6 mph 12 mph 59.1% 0.00 in 0 W/m2
18:19 33.4 °F 20.6 °F 30.02 in WNW 0.1 mph 12 mph 59% 0.00 in 0 W/m2
18:24 33.3 °F 20.5 °F 30.02 in WNW 0.5 mph 12 mph 59% 0.00 in 0 W/m2
18:29 33.1 °F 20.3 °F 30.02 in NW 0.7 mph 12 mph 58.8% 0.00 in 0 W/m2
18:34 32.9 °F 19.8 °F 30.02 in NNW 0.1 mph 12 mph 58% 0.00 in 0 W/m2
18:39 32.8 °F 19.6 °F 30.03 in NNW 0.8 mph 5 mph 58% 0.00 in 0 W/m2
18:44 32.6 °F 19.3 °F 30.03 in NNW 0.2 mph 5 mph 57.6% 0.00 in 0 W/m2
18:49 32.5 °F 18.9 °F 30.03 in NNW 1.3 mph 5 mph 56.9% 0.00 in 0 W/m2
18:54 32.4 °F 18.5 °F 30.04 in NW 0.8 mph 5 mph 56% 0.00 in 0 W/m2
18:59 32.3 °F 18.4 °F 30.04 in NW 0.8 mph 6 mph 56% 0.00 in 0 W/m2
19:04 32.2 °F 18.3 °F 30.04 in NW 1.2 mph 6 mph 56% 0.00 in 0 W/m2
19:09 32.1 °F 18.1 °F 30.04 in NW 1.1 mph 4 mph 55.9% 0.00 in 0 W/m2
19:13 32 °F 17.7 °F 30.05 in NW 1.1 mph 4 mph 55% 0.00 in 0 W/m2
Hartford County Weather
Compliments of Weather Underground - 2 mb